DAAJ/DJG METAR and TAF weather

Enter ICAO airport designator
Station Type Date Time Source
DAAJ METAR 2019/04/21 22:00 UTC NOAA

DAAJ 212200Z 13005KT 6000 NSC 22/M01 Q1014


Station Type Date Time Source
DAAJ Decoded METAR 2019/04/21 22:00 UTC NOAA

Djanet, Algeria (DAAJ) 24-33N 009-28E 1054M
Apr 21, 2019 - 06:00 PM EDT / 2019.04.21 2200 UTC
Wind: from the SE (130 degrees) at 6 MPH (5 KT):0
Visibility: 3 mile(s):0
Temperature: 71 F (22 C)
Dew Point: 30 F (-1 C)
Relative Humidity: 21%
Pressure (altimeter): 29.94 in. Hg (1014 hPa)
ob: DAAJ 212200Z 13005KT 6000 NSC 22/M01 Q1014
cycle: 22

Station Type Date Time Source
DAAJ TAF 2019/04/21 18:33 UTC NOAA

TAF DAAJ 211700Z 2118/2218 18014KT 6000 NSC PROB30 2118/2124 3000 HZ PROB30 2208/2214 22024KT 3000 DRSA

Example: see airport list